DLH322 EDDF-LICJ
Flight info
| Callsign | DLH322 |
|---|---|
| Flight time | 2h 17m |
| Altitude | 37000 |
| Route | ANEKI2L/18 ANEKI Y163 NATOR DCT TRA DCT RIPUS DCT GERSA DCT SOSON DCT ODINA DCT RONAB DCT GIANO |
| Aircraft | A320/M-SDE2E3FGIJ1LORWXYZ/HB1 |
Departure
| Time | 2026-05-06 10:13 |
|---|---|
| Airport | Frankfurt Main Airport (EDDF) |
Arrival
| Time | 2026-05-06 12:30 |
|---|---|
| Airport | Falcone–Borsellino Airport (LICJ) |
| Time | Latitude | Longitude | Altitude | Speed | Heading |
|---|---|---|---|---|---|
| 2026-05-06 09:36 | 50.04431 | 8.56329 | 362 ft | 0 kts | 167° |
| 2026-05-06 10:04 | 50.04435 | 8.56327 | 356 ft | 3 kts | 167° |
| 2026-05-06 10:04 | 50.04461 | 8.56318 | 360 ft | 3 kts | 166° |
| 2026-05-06 10:04 | 50.04482 | 8.56313 | 359 ft | 4 kts | 191° |
| 2026-05-06 10:05 | 50.04503 | 8.56331 | 363 ft | 4 kts | 240° |
| 2026-05-06 10:05 | 50.04513 | 8.56368 | 363 ft | 3 kts | 250° |
| 2026-05-06 10:05 | 50.04514 | 8.56373 | 361 ft | 0 kts | 249° |
| 2026-05-06 10:07 | 50.04514 | 8.56372 | 356 ft | 0 kts | 249° |
| 2026-05-06 10:07 | 50.04506 | 8.56339 | 361 ft | 7 kts | 250° |
| 2026-05-06 10:07 | 50.04481 | 8.56232 | 363 ft | 14 kts | 249° |
| 2026-05-06 10:08 | 50.04442 | 8.56072 | 363 ft | 17 kts | 246° |
| 2026-05-06 10:08 | 50.04341 | 8.56056 | 362 ft | 17 kts | 160° |
| 2026-05-06 10:08 | 50.04250 | 8.55986 | 362 ft | 18 kts | 249° |
| 2026-05-06 10:08 | 50.04205 | 8.55796 | 360 ft | 20 kts | 249° |
| 2026-05-06 10:09 | 50.04156 | 8.55590 | 353 ft | 21 kts | 250° |
| 2026-05-06 10:09 | 50.04104 | 8.55377 | 358 ft | 21 kts | 249° |
| 2026-05-06 10:09 | 50.04054 | 8.55166 | 356 ft | 21 kts | 249° |
| 2026-05-06 10:09 | 50.04003 | 8.54951 | 358 ft | 22 kts | 250° |
| 2026-05-06 10:10 | 50.03949 | 8.54724 | 357 ft | 23 kts | 249° |
| 2026-05-06 10:10 | 50.03891 | 8.54484 | 353 ft | 24 kts | 249° |
| 2026-05-06 10:10 | 50.03813 | 8.54261 | 345 ft | 23 kts | 238° |
| 2026-05-06 10:10 | 50.03756 | 8.54040 | 351 ft | 22 kts | 249° |
| 2026-05-06 10:11 | 50.03700 | 8.53811 | 346 ft | 23 kts | 249° |
| 2026-05-06 10:11 | 50.03643 | 8.53573 | 337 ft | 24 kts | 250° |
| 2026-05-06 10:11 | 50.03584 | 8.53333 | 335 ft | 24 kts | 250° |
| 2026-05-06 10:11 | 50.03529 | 8.53109 | 334 ft | 21 kts | 249° |
| 2026-05-06 10:12 | 50.03477 | 8.52891 | 334 ft | 22 kts | 247° |
| 2026-05-06 10:12 | 50.03422 | 8.52686 | 334 ft | 17 kts | 248° |
| 2026-05-06 10:12 | 50.03327 | 8.52594 | 334 ft | 18 kts | 182° |
| 2026-05-06 10:12 | 50.03196 | 8.52595 | 335 ft | 22 kts | 180° |
| 2026-05-06 10:13 | 50.02829 | 8.52596 | 336 ft | 87 kts | 179° |
| 2026-05-06 10:13 | 50.02030 | 8.52606 | 334 ft | 139 kts | 180° |
| 2026-05-06 10:13 | 50.00970 | 8.52637 | 671 ft | 155 kts | 182° |
| 2026-05-06 10:13 | 49.99898 | 8.52657 | 1359 ft | 156 kts | 181° |
| 2026-05-06 10:14 | 49.98781 | 8.52716 | 1870 ft | 170 kts | 180° |
| 2026-05-06 10:14 | 49.97527 | 8.52795 | 2163 ft | 192 kts | 180° |
| 2026-05-06 10:14 | 49.96102 | 8.52889 | 2488 ft | 216 kts | 180° |
| 2026-05-06 10:14 | 49.94576 | 8.52996 | 3278 ft | 221 kts | 181° |
| 2026-05-06 10:15 | 49.93024 | 8.53108 | 4138 ft | 225 kts | 180° |
| 2026-05-06 10:15 | 49.91451 | 8.53221 | 4990 ft | 228 kts | 180° |
| 2026-05-06 10:15 | 49.89853 | 8.53336 | 5839 ft | 232 kts | 180° |
| 2026-05-06 10:15 | 49.88234 | 8.53448 | 6674 ft | 234 kts | 180° |
| 2026-05-06 10:16 | 49.86616 | 8.53559 | 7500 ft | 237 kts | 180° |
| 2026-05-06 10:16 | 49.84960 | 8.53674 | 8372 ft | 239 kts | 180° |
| 2026-05-06 10:16 | 49.83288 | 8.53791 | 9241 ft | 242 kts | 180° |
| 2026-05-06 10:16 | 49.81596 | 8.53909 | 10081 ft | 245 kts | 180° |
| 2026-05-06 10:17 | 49.79883 | 8.54027 | 10875 ft | 247 kts | 180° |
| 2026-05-06 10:17 | 49.78158 | 8.54125 | 11670 ft | 249 kts | 184° |
| 2026-05-06 10:17 | 49.76377 | 8.53926 | 12110 ft | 267 kts | 187° |
| 2026-05-06 10:17 | 49.74445 | 8.53668 | 12397 ft | 291 kts | 187° |
| 2026-05-06 10:18 | 49.72351 | 8.53386 | 12641 ft | 314 kts | 187° |
| 2026-05-06 10:18 | 49.70131 | 8.53089 | 13190 ft | 325 kts | 187° |
| 2026-05-06 10:18 | 49.67864 | 8.52788 | 13891 ft | 329 kts | 186° |
| 2026-05-06 10:18 | 49.65569 | 8.52481 | 14558 ft | 333 kts | 186° |
| 2026-05-06 10:19 | 49.63254 | 8.52168 | 15246 ft | 335 kts | 186° |
| 2026-05-06 10:19 | 49.60915 | 8.51855 | 15917 ft | 339 kts | 186° |
| 2026-05-06 10:19 | 49.58554 | 8.51544 | 16582 ft | 342 kts | 186° |
| 2026-05-06 10:19 | 49.56168 | 8.51232 | 17246 ft | 346 kts | 186° |
| 2026-05-06 10:20 | 49.53754 | 8.50919 | 17898 ft | 350 kts | 185° |
| 2026-05-06 10:20 | 49.51315 | 8.50605 | 18483 ft | 353 kts | 186° |
| 2026-05-06 10:20 | 49.48855 | 8.50285 | 19060 ft | 356 kts | 186° |
| 2026-05-06 10:20 | 49.46372 | 8.49960 | 19644 ft | 359 kts | 186° |
| 2026-05-06 10:21 | 49.43873 | 8.49634 | 20220 ft | 361 kts | 186° |
| 2026-05-06 10:21 | 49.41364 | 8.49307 | 20819 ft | 363 kts | 186° |
| 2026-05-06 10:21 | 49.38839 | 8.48973 | 21387 ft | 365 kts | 186° |
| 2026-05-06 10:21 | 49.36296 | 8.48638 | 21937 ft | 368 kts | 186° |
| 2026-05-06 10:22 | 49.33735 | 8.48306 | 22475 ft | 370 kts | 186° |
| 2026-05-06 10:22 | 49.31189 | 8.47975 | 23001 ft | 373 kts | 186° |
| 2026-05-06 10:22 | 49.28590 | 8.47637 | 23501 ft | 376 kts | 186° |
| 2026-05-06 10:22 | 49.25976 | 8.47297 | 23954 ft | 377 kts | 186° |
| 2026-05-06 10:23 | 49.23354 | 8.46956 | 24421 ft | 379 kts | 186° |
| 2026-05-06 10:23 | 49.20728 | 8.46614 | 24882 ft | 379 kts | 186° |
| 2026-05-06 10:23 | 49.18098 | 8.46273 | 25398 ft | 379 kts | 185° |
| 2026-05-06 10:23 | 49.15472 | 8.45930 | 25863 ft | 380 kts | 185° |
| 2026-05-06 10:24 | 49.12830 | 8.45584 | 26303 ft | 381 kts | 185° |
| 2026-05-06 10:24 | 49.10182 | 8.45240 | 26729 ft | 383 kts | 185° |
| 2026-05-06 10:24 | 49.07512 | 8.44897 | 27141 ft | 385 kts | 186° |
| 2026-05-06 10:24 | 49.04902 | 8.44252 | 27537 ft | 386 kts | 193° |
| 2026-05-06 10:25 | 49.02276 | 8.43332 | 27943 ft | 388 kts | 193° |
| 2026-05-06 10:25 | 48.99639 | 8.42409 | 28349 ft | 390 kts | 193° |
| 2026-05-06 10:25 | 48.96986 | 8.41480 | 28697 ft | 393 kts | 192° |
| 2026-05-06 10:25 | 48.94312 | 8.40547 | 29065 ft | 395 kts | 192° |
| 2026-05-06 10:26 | 48.91622 | 8.39611 | 29441 ft | 397 kts | 192° |
| 2026-05-06 10:26 | 48.88922 | 8.38675 | 29805 ft | 399 kts | 192° |
| 2026-05-06 10:26 | 48.86208 | 8.37737 | 30123 ft | 401 kts | 192° |
| 2026-05-06 10:26 | 48.83478 | 8.36798 | 30421 ft | 403 kts | 193° |
| 2026-05-06 10:27 | 48.80739 | 8.35855 | 30726 ft | 405 kts | 193° |
| 2026-05-06 10:27 | 48.77988 | 8.34904 | 31022 ft | 406 kts | 193° |
| 2026-05-06 10:27 | 48.75229 | 8.33920 | 31310 ft | 408 kts | 194° |
| 2026-05-06 10:27 | 48.72475 | 8.32912 | 31710 ft | 406 kts | 194° |
| 2026-05-06 10:28 | 48.69736 | 8.31899 | 32142 ft | 404 kts | 194° |
| 2026-05-06 10:28 | 48.67006 | 8.30888 | 32563 ft | 403 kts | 194° |
| 2026-05-06 10:28 | 48.64288 | 8.29888 | 33011 ft | 401 kts | 195° |
| 2026-05-06 10:28 | 48.61618 | 8.28910 | 33437 ft | 399 kts | 195° |
| 2026-05-06 10:29 | 48.58926 | 8.27928 | 33868 ft | 397 kts | 195° |
| 2026-05-06 10:29 | 48.56207 | 8.26936 | 34218 ft | 396 kts | 195° |
| 2026-05-06 10:29 | 48.53558 | 8.25974 | 34486 ft | 397 kts | 195° |
| 2026-05-06 10:29 | 48.50859 | 8.25078 | 34737 ft | 399 kts | 190° |
| 2026-05-06 10:30 | 48.48077 | 8.24805 | 34960 ft | 403 kts | 181° |
| 2026-05-06 10:30 | 48.45273 | 8.25272 | 35187 ft | 407 kts | 174° |
| 2026-05-06 10:30 | 48.42475 | 8.25965 | 35400 ft | 409 kts | 174° |
| 2026-05-06 10:30 | 48.39666 | 8.26655 | 35649 ft | 409 kts | 174° |
| 2026-05-06 10:31 | 48.36851 | 8.27342 | 35865 ft | 410 kts | 174° |
| 2026-05-06 10:31 | 48.34030 | 8.28026 | 36082 ft | 410 kts | 175° |
| 2026-05-06 10:31 | 48.31222 | 8.28702 | 36400 ft | 408 kts | 175° |
| 2026-05-06 10:31 | 48.28422 | 8.29377 | 36645 ft | 407 kts | 175° |
| 2026-05-06 10:32 | 48.25620 | 8.30052 | 36793 ft | 408 kts | 174° |
| 2026-05-06 10:32 | 48.22825 | 8.30725 | 36822 ft | 406 kts | 174° |
| 2026-05-06 10:32 | 48.17255 | 8.32059 | 36824 ft | 405 kts | 174° |
| 2026-05-06 10:33 | 48.11699 | 8.33398 | 36821 ft | 404 kts | 174° |
| 2026-05-06 10:33 | 48.06145 | 8.34756 | 36825 ft | 403 kts | 174° |
| 2026-05-06 10:34 | 48.00638 | 8.36096 | 36828 ft | 403 kts | 174° |
| 2026-05-06 10:34 | 47.95093 | 8.37430 | 36830 ft | 403 kts | 174° |
| 2026-05-06 10:35 | 47.89544 | 8.38761 | 36832 ft | 403 kts | 174° |
| 2026-05-06 10:35 | 47.83992 | 8.40094 | 36842 ft | 404 kts | 174° |
| 2026-05-06 10:36 | 47.78441 | 8.41425 | 36840 ft | 403 kts | 174° |
| 2026-05-06 10:36 | 47.73839 | 8.42528 | 36836 ft | 403 kts | 174° |
| 2026-05-06 10:37 | 47.68299 | 8.43834 | 36812 ft | 402 kts | 175° |
| 2026-05-06 10:37 | 47.62741 | 8.44777 | 36819 ft | 402 kts | 178° |
| 2026-05-06 10:38 | 47.57173 | 8.45504 | 36821 ft | 402 kts | 179° |
| 2026-05-06 10:38 | 47.51601 | 8.46250 | 36834 ft | 402 kts | 178° |
| 2026-05-06 10:39 | 47.46024 | 8.47058 | 36833 ft | 403 kts | 178° |
| 2026-05-06 10:39 | 47.40444 | 8.47889 | 36839 ft | 403 kts | 178° |
| 2026-05-06 10:40 | 47.34900 | 8.48699 | 36841 ft | 403 kts | 178° |
| 2026-05-06 10:40 | 47.29318 | 8.49511 | 36845 ft | 403 kts | 178° |
| 2026-05-06 10:41 | 47.23724 | 8.50331 | 36842 ft | 404 kts | 178° |
| 2026-05-06 10:41 | 47.18133 | 8.51150 | 36841 ft | 404 kts | 178° |
| 2026-05-06 10:42 | 47.12539 | 8.51961 | 36841 ft | 404 kts | 178° |
| 2026-05-06 10:42 | 47.06934 | 8.52777 | 36845 ft | 404 kts | 178° |
| 2026-05-06 10:43 | 47.01328 | 8.53593 | 36827 ft | 405 kts | 178° |
| 2026-05-06 10:44 | 46.92914 | 8.54789 | 36826 ft | 405 kts | 178° |
| 2026-05-06 10:44 | 46.87307 | 8.55598 | 36834 ft | 405 kts | 178° |
| 2026-05-06 10:45 | 46.81701 | 8.56406 | 36846 ft | 405 kts | 179° |
| 2026-05-06 10:45 | 46.76128 | 8.57203 | 36836 ft | 405 kts | 179° |
| 2026-05-06 10:46 | 46.70506 | 8.58010 | 36844 ft | 406 kts | 179° |
| 2026-05-06 10:46 | 46.64897 | 8.58810 | 36857 ft | 404 kts | 179° |
| 2026-05-06 10:47 | 46.59302 | 8.59609 | 36867 ft | 403 kts | 179° |
| 2026-05-06 10:47 | 46.53727 | 8.60399 | 36873 ft | 402 kts | 180° |
| 2026-05-06 10:48 | 46.48168 | 8.61182 | 36864 ft | 400 kts | 179° |
| 2026-05-06 10:48 | 46.42624 | 8.61974 | 36869 ft | 401 kts | 179° |
| 2026-05-06 10:49 | 46.37061 | 8.62761 | 36890 ft | 402 kts | 179° |
| 2026-05-06 10:49 | 46.31490 | 8.63546 | 36885 ft | 402 kts | 179° |
| 2026-05-06 10:50 | 46.25952 | 8.64318 | 36882 ft | 401 kts | 180° |
| 2026-05-06 10:50 | 46.20420 | 8.65089 | 36832 ft | 396 kts | 179° |
| 2026-05-06 10:51 | 46.14919 | 8.65851 | 36851 ft | 397 kts | 180° |
| 2026-05-06 10:51 | 46.09442 | 8.67118 | 36851 ft | 405 kts | 168° |
| 2026-05-06 10:52 | 46.04156 | 8.70126 | 36855 ft | 409 kts | 165° |
| 2026-05-06 10:52 | 45.98861 | 8.73173 | 36857 ft | 409 kts | 165° |
| 2026-05-06 10:53 | 45.93577 | 8.76199 | 36853 ft | 409 kts | 165° |
| 2026-05-06 10:53 | 45.88293 | 8.79235 | 36865 ft | 409 kts | 165° |
| 2026-05-06 10:54 | 45.83049 | 8.82249 | 36867 ft | 409 kts | 165° |
| 2026-05-06 10:54 | 45.77767 | 8.85267 | 36866 ft | 408 kts | 165° |
| 2026-05-06 10:55 | 45.72482 | 8.88275 | 36876 ft | 408 kts | 165° |
| 2026-05-06 10:55 | 45.67204 | 8.91282 | 36867 ft | 409 kts | 165° |
| 2026-05-06 10:56 | 45.61927 | 8.94287 | 36856 ft | 407 kts | 165° |
| 2026-05-06 10:56 | 45.56655 | 8.97271 | 36867 ft | 407 kts | 165° |
| 2026-05-06 10:57 | 45.51385 | 9.00247 | 36850 ft | 407 kts | 165° |
| 2026-05-06 10:57 | 45.46131 | 9.03212 | 36878 ft | 406 kts | 165° |
| 2026-05-06 10:58 | 45.40888 | 9.06167 | 36845 ft | 405 kts | 166° |
| 2026-05-06 10:58 | 45.35672 | 9.09106 | 36864 ft | 404 kts | 166° |
| 2026-05-06 10:59 | 45.30445 | 9.12044 | 36859 ft | 404 kts | 166° |
| 2026-05-06 10:59 | 45.25222 | 9.14971 | 36843 ft | 403 kts | 166° |
| 2026-05-06 11:00 | 45.19993 | 9.17888 | 36834 ft | 403 kts | 166° |
| 2026-05-06 11:00 | 45.14758 | 9.20798 | 36838 ft | 404 kts | 166° |
| 2026-05-06 11:01 | 45.09570 | 9.23681 | 36846 ft | 404 kts | 166° |
| 2026-05-06 11:01 | 45.04338 | 9.26597 | 36831 ft | 403 kts | 166° |
| 2026-05-06 11:02 | 44.99120 | 9.29501 | 36820 ft | 402 kts | 166° |
| 2026-05-06 11:02 | 44.93909 | 9.32386 | 36832 ft | 403 kts | 166° |
| 2026-05-06 11:03 | 44.88690 | 9.35270 | 36846 ft | 403 kts | 166° |
| 2026-05-06 11:03 | 44.83470 | 9.38148 | 36862 ft | 403 kts | 166° |
| 2026-05-06 11:04 | 44.78241 | 9.41023 | 36837 ft | 403 kts | 166° |
| 2026-05-06 11:04 | 44.73022 | 9.43895 | 36853 ft | 403 kts | 166° |
| 2026-05-06 11:05 | 44.67839 | 9.46735 | 36860 ft | 402 kts | 166° |
| 2026-05-06 11:05 | 44.62618 | 9.49578 | 36844 ft | 402 kts | 166° |
| 2026-05-06 11:06 | 44.57393 | 9.52428 | 36839 ft | 403 kts | 166° |
| 2026-05-06 11:06 | 44.52158 | 9.55286 | 36855 ft | 405 kts | 166° |
| 2026-05-06 11:07 | 44.46896 | 9.58149 | 36862 ft | 406 kts | 166° |
| 2026-05-06 11:07 | 44.41625 | 9.61011 | 36874 ft | 407 kts | 166° |
| 2026-05-06 11:08 | 44.36347 | 9.63880 | 36878 ft | 407 kts | 166° |
| 2026-05-06 11:08 | 44.31066 | 9.66741 | 36890 ft | 407 kts | 166° |
| 2026-05-06 11:09 | 44.25777 | 9.69590 | 36904 ft | 407 kts | 166° |
| 2026-05-06 11:09 | 44.20488 | 9.72437 | 36903 ft | 407 kts | 166° |
| 2026-05-06 11:10 | 44.15200 | 9.75281 | 36903 ft | 407 kts | 166° |
| 2026-05-06 11:10 | 44.09909 | 9.78118 | 36912 ft | 408 kts | 166° |
| 2026-05-06 11:11 | 44.04608 | 9.80959 | 36920 ft | 408 kts | 166° |
| 2026-05-06 11:11 | 43.99313 | 9.83788 | 36871 ft | 408 kts | 166° |
| 2026-05-06 11:12 | 43.94007 | 9.86626 | 36898 ft | 409 kts | 166° |
| 2026-05-06 11:12 | 43.88723 | 9.89448 | 36910 ft | 410 kts | 166° |
| 2026-05-06 11:13 | 43.83391 | 9.92277 | 36921 ft | 410 kts | 166° |
| 2026-05-06 11:13 | 43.78058 | 9.95096 | 36913 ft | 410 kts | 166° |
| 2026-05-06 11:14 | 43.72722 | 9.97919 | 36925 ft | 410 kts | 166° |
| 2026-05-06 11:14 | 43.67386 | 10.00743 | 36931 ft | 411 kts | 166° |
| 2026-05-06 11:15 | 43.62045 | 10.03558 | 36934 ft | 411 kts | 166° |
| 2026-05-06 11:15 | 43.56700 | 10.06377 | 36913 ft | 411 kts | 166° |
| 2026-05-06 11:16 | 43.51355 | 10.09185 | 36925 ft | 411 kts | 166° |
| 2026-05-06 11:16 | 43.46035 | 10.11967 | 36932 ft | 412 kts | 166° |
| 2026-05-06 11:17 | 43.40681 | 10.14768 | 36933 ft | 412 kts | 166° |
| 2026-05-06 11:17 | 43.35319 | 10.17574 | 36928 ft | 412 kts | 166° |
| 2026-05-06 11:18 | 43.29963 | 10.20379 | 36914 ft | 412 kts | 166° |
| 2026-05-06 11:18 | 43.24599 | 10.23171 | 36920 ft | 412 kts | 165° |
| 2026-05-06 11:19 | 43.19235 | 10.25949 | 36934 ft | 412 kts | 165° |
| 2026-05-06 11:19 | 43.13863 | 10.28733 | 36915 ft | 412 kts | 165° |
| 2026-05-06 11:20 | 43.08527 | 10.31493 | 36924 ft | 413 kts | 165° |
| 2026-05-06 11:20 | 43.03158 | 10.34261 | 36927 ft | 413 kts | 165° |
| 2026-05-06 11:21 | 42.97780 | 10.37039 | 36935 ft | 413 kts | 165° |
| 2026-05-06 11:21 | 42.92404 | 10.39812 | 36929 ft | 413 kts | 165° |
| 2026-05-06 11:22 | 42.87024 | 10.42580 | 36935 ft | 413 kts | 165° |
| 2026-05-06 11:22 | 42.81639 | 10.45341 | 36939 ft | 413 kts | 165° |
| 2026-05-06 11:23 | 42.76256 | 10.48098 | 36940 ft | 413 kts | 165° |
| 2026-05-06 11:23 | 42.70868 | 10.50851 | 36927 ft | 413 kts | 166° |
| 2026-05-06 11:24 | 42.65519 | 10.53579 | 36932 ft | 413 kts | 166° |
| 2026-05-06 11:24 | 42.60128 | 10.56324 | 36941 ft | 413 kts | 166° |
| 2026-05-06 11:25 | 42.54739 | 10.59059 | 36919 ft | 413 kts | 166° |
| 2026-05-06 11:25 | 42.49355 | 10.61787 | 36928 ft | 413 kts | 166° |
| 2026-05-06 11:26 | 42.43971 | 10.64511 | 36941 ft | 413 kts | 166° |
| 2026-05-06 11:26 | 42.39494 | 10.66775 | 36948 ft | 413 kts | 166° |
| 2026-05-06 11:27 | 42.34106 | 10.69497 | 36955 ft | 413 kts | 166° |
| 2026-05-06 11:27 | 42.28720 | 10.72203 | 36962 ft | 413 kts | 166° |
| 2026-05-06 11:28 | 42.23333 | 10.74906 | 36964 ft | 413 kts | 166° |
| 2026-05-06 11:28 | 42.17952 | 10.77605 | 36965 ft | 412 kts | 166° |
| 2026-05-06 11:29 | 42.12611 | 10.80278 | 36962 ft | 412 kts | 166° |
| 2026-05-06 11:29 | 42.07237 | 10.82969 | 36950 ft | 412 kts | 166° |
| 2026-05-06 11:30 | 42.01861 | 10.85657 | 36964 ft | 412 kts | 166° |
| 2026-05-06 11:30 | 41.96484 | 10.88334 | 36973 ft | 412 kts | 166° |
| 2026-05-06 11:31 | 41.91107 | 10.91007 | 36981 ft | 411 kts | 166° |
| 2026-05-06 11:31 | 41.85732 | 10.93677 | 36967 ft | 412 kts | 166° |
| 2026-05-06 11:32 | 41.80358 | 10.96336 | 36978 ft | 412 kts | 166° |
| 2026-05-06 11:32 | 41.75013 | 10.98982 | 36979 ft | 412 kts | 166° |
| 2026-05-06 11:33 | 41.69637 | 11.01643 | 36985 ft | 411 kts | 166° |
| 2026-05-06 11:33 | 41.64266 | 11.04289 | 36965 ft | 411 kts | 166° |
| 2026-05-06 11:34 | 41.58890 | 11.06929 | 36973 ft | 412 kts | 166° |
| 2026-05-06 11:34 | 41.53501 | 11.09578 | 36979 ft | 412 kts | 166° |
| 2026-05-06 11:35 | 41.48110 | 11.12214 | 36981 ft | 413 kts | 166° |
| 2026-05-06 11:35 | 41.42722 | 11.14845 | 36970 ft | 413 kts | 166° |
| 2026-05-06 11:36 | 41.37324 | 11.17481 | 36975 ft | 413 kts | 166° |
| 2026-05-06 11:36 | 41.31955 | 11.20101 | 36981 ft | 413 kts | 166° |
| 2026-05-06 11:37 | 41.26557 | 11.22738 | 36983 ft | 413 kts | 166° |
| 2026-05-06 11:37 | 41.21142 | 11.25370 | 36962 ft | 414 kts | 166° |
| 2026-05-06 11:38 | 41.15718 | 11.27995 | 36968 ft | 414 kts | 166° |
| 2026-05-06 11:38 | 41.10299 | 11.30615 | 36965 ft | 415 kts | 166° |
| 2026-05-06 11:39 | 41.04868 | 11.33241 | 36963 ft | 415 kts | 166° |
| 2026-05-06 11:39 | 40.99437 | 11.35859 | 36956 ft | 416 kts | 166° |
| 2026-05-06 11:40 | 40.94031 | 11.38467 | 36963 ft | 416 kts | 166° |
| 2026-05-06 11:40 | 40.88579 | 11.41087 | 36971 ft | 417 kts | 166° |
| 2026-05-06 11:41 | 40.83124 | 11.43704 | 36984 ft | 417 kts | 166° |
| 2026-05-06 11:41 | 40.77668 | 11.46319 | 36989 ft | 417 kts | 166° |
| 2026-05-06 11:42 | 40.72204 | 11.48926 | 36971 ft | 418 kts | 167° |
| 2026-05-06 11:42 | 40.66728 | 11.51531 | 36978 ft | 418 kts | 167° |
| 2026-05-06 11:43 | 40.61255 | 11.54142 | 36988 ft | 419 kts | 167° |
| 2026-05-06 11:43 | 40.55774 | 11.56761 | 36991 ft | 419 kts | 167° |
| 2026-05-06 11:44 | 40.47582 | 11.60649 | 36981 ft | 419 kts | 168° |
| 2026-05-06 11:44 | 40.42080 | 11.63254 | 36989 ft | 420 kts | 168° |
| 2026-05-06 11:45 | 40.36590 | 11.65850 | 36999 ft | 420 kts | 168° |
| 2026-05-06 11:45 | 40.31090 | 11.68442 | 36961 ft | 420 kts | 168° |
| 2026-05-06 11:46 | 40.25582 | 11.71043 | 36977 ft | 421 kts | 168° |
| 2026-05-06 11:46 | 40.20061 | 11.73648 | 36981 ft | 422 kts | 168° |
| 2026-05-06 11:47 | 40.14535 | 11.76234 | 36995 ft | 422 kts | 168° |
| 2026-05-06 11:47 | 40.08999 | 11.78825 | 37001 ft | 423 kts | 168° |
| 2026-05-06 11:48 | 40.03497 | 11.81395 | 37005 ft | 423 kts | 168° |
| 2026-05-06 11:48 | 39.97939 | 11.83993 | 37010 ft | 423 kts | 168° |
| 2026-05-06 11:49 | 39.92402 | 11.86586 | 37010 ft | 423 kts | 168° |
| 2026-05-06 11:49 | 39.89623 | 11.87884 | 36909 ft | 428 kts | 168° |
| 2026-05-06 11:49 | 39.86812 | 11.89194 | 36639 ft | 430 kts | 168° |
| 2026-05-06 11:50 | 39.84017 | 11.90606 | 36362 ft | 431 kts | 166° |
| 2026-05-06 11:50 | 39.81268 | 11.92131 | 36029 ft | 428 kts | 165° |
| 2026-05-06 11:50 | 39.78560 | 11.93708 | 35517 ft | 425 kts | 164° |
| 2026-05-06 11:50 | 39.75877 | 11.95295 | 35008 ft | 422 kts | 164° |
| 2026-05-06 11:51 | 39.73212 | 11.96861 | 34501 ft | 418 kts | 165° |
| 2026-05-06 11:51 | 39.70560 | 11.98391 | 33992 ft | 415 kts | 166° |
| 2026-05-06 11:51 | 39.67923 | 11.99885 | 33452 ft | 411 kts | 166° |
| 2026-05-06 11:51 | 39.65312 | 12.01350 | 32978 ft | 406 kts | 166° |
| 2026-05-06 11:52 | 39.62726 | 12.02790 | 32483 ft | 402 kts | 166° |
| 2026-05-06 11:52 | 39.60165 | 12.04212 | 32027 ft | 398 kts | 165° |
| 2026-05-06 11:52 | 39.57636 | 12.05622 | 31567 ft | 394 kts | 165° |
| 2026-05-06 11:52 | 39.55164 | 12.07001 | 31129 ft | 390 kts | 164° |
| 2026-05-06 11:53 | 39.52682 | 12.08384 | 30693 ft | 386 kts | 164° |
| 2026-05-06 11:53 | 39.50222 | 12.09758 | 30266 ft | 383 kts | 164° |
| 2026-05-06 11:53 | 39.47786 | 12.11118 | 29808 ft | 379 kts | 164° |
| 2026-05-06 11:53 | 39.45380 | 12.12459 | 29405 ft | 374 kts | 164° |
| 2026-05-06 11:54 | 39.43007 | 12.13783 | 29007 ft | 369 kts | 164° |
| 2026-05-06 11:54 | 39.40667 | 12.15089 | 28620 ft | 364 kts | 164° |
| 2026-05-06 11:54 | 39.38358 | 12.16379 | 28239 ft | 358 kts | 164° |
| 2026-05-06 11:54 | 39.36083 | 12.17648 | 27884 ft | 353 kts | 164° |
| 2026-05-06 11:55 | 39.33837 | 12.18898 | 27499 ft | 349 kts | 164° |
| 2026-05-06 11:55 | 39.31610 | 12.20130 | 27148 ft | 347 kts | 165° |
| 2026-05-06 11:55 | 39.29399 | 12.21348 | 26766 ft | 345 kts | 165° |
| 2026-05-06 11:55 | 39.27223 | 12.22545 | 26389 ft | 343 kts | 165° |
| 2026-05-06 11:56 | 39.25039 | 12.23749 | 26012 ft | 341 kts | 164° |
| 2026-05-06 11:56 | 39.22867 | 12.24951 | 25624 ft | 339 kts | 164° |
| 2026-05-06 11:56 | 39.20707 | 12.26149 | 25230 ft | 337 kts | 164° |
| 2026-05-06 11:56 | 39.18559 | 12.27341 | 24835 ft | 335 kts | 164° |
| 2026-05-06 11:57 | 39.16421 | 12.28522 | 24434 ft | 334 kts | 164° |
| 2026-05-06 11:57 | 39.14289 | 12.29698 | 24028 ft | 332 kts | 164° |
| 2026-05-06 11:57 | 39.12167 | 12.30868 | 23638 ft | 331 kts | 164° |
| 2026-05-06 11:57 | 39.10047 | 12.32040 | 23192 ft | 330 kts | 164° |
| 2026-05-06 11:58 | 39.07943 | 12.33203 | 22793 ft | 328 kts | 163° |
| 2026-05-06 11:58 | 39.05859 | 12.34355 | 22410 ft | 325 kts | 163° |
| 2026-05-06 11:58 | 39.03787 | 12.35498 | 22024 ft | 323 kts | 163° |
| 2026-05-06 11:58 | 39.01731 | 12.36630 | 21657 ft | 320 kts | 163° |
| 2026-05-06 11:59 | 38.99687 | 12.37754 | 21283 ft | 318 kts | 163° |
| 2026-05-06 11:59 | 38.97656 | 12.38869 | 20925 ft | 317 kts | 163° |
| 2026-05-06 11:59 | 38.95636 | 12.39978 | 20566 ft | 315 kts | 163° |
| 2026-05-06 11:59 | 38.93624 | 12.41084 | 20182 ft | 313 kts | 163° |
| 2026-05-06 12:00 | 38.91624 | 12.42181 | 19848 ft | 311 kts | 163° |
| 2026-05-06 12:00 | 38.89639 | 12.43269 | 19494 ft | 310 kts | 162° |
| 2026-05-06 12:00 | 38.87660 | 12.44352 | 19146 ft | 309 kts | 162° |
| 2026-05-06 12:00 | 38.85656 | 12.45462 | 18990 ft | 319 kts | 161° |
| 2026-05-06 12:01 | 38.83620 | 12.46654 | 19002 ft | 323 kts | 160° |
| 2026-05-06 12:01 | 38.81580 | 12.47891 | 18983 ft | 325 kts | 159° |
| 2026-05-06 12:01 | 38.79515 | 12.49154 | 18291 ft | 335 kts | 159° |
| 2026-05-06 12:01 | 38.77388 | 12.50452 | 17617 ft | 340 kts | 159° |
| 2026-05-06 12:02 | 38.75256 | 12.51754 | 17108 ft | 339 kts | 159° |
| 2026-05-06 12:02 | 38.73130 | 12.53045 | 16646 ft | 337 kts | 159° |
| 2026-05-06 12:02 | 38.71042 | 12.54306 | 16214 ft | 335 kts | 159° |
| 2026-05-06 12:02 | 38.68936 | 12.55575 | 15776 ft | 334 kts | 159° |
| 2026-05-06 12:03 | 38.66810 | 12.56854 | 15343 ft | 332 kts | 159° |
| 2026-05-06 12:03 | 38.64756 | 12.58083 | 14961 ft | 329 kts | 159° |
| 2026-05-06 12:03 | 38.62684 | 12.59317 | 14576 ft | 327 kts | 159° |
| 2026-05-06 12:03 | 38.60623 | 12.60543 | 14186 ft | 325 kts | 159° |
| 2026-05-06 12:04 | 38.58579 | 12.61761 | 13801 ft | 323 kts | 158° |
| 2026-05-06 12:04 | 38.56546 | 12.62978 | 13367 ft | 321 kts | 158° |
| 2026-05-06 12:04 | 38.54529 | 12.64184 | 12940 ft | 319 kts | 158° |
| 2026-05-06 12:04 | 38.52525 | 12.65384 | 12518 ft | 317 kts | 158° |
| 2026-05-06 12:05 | 38.50531 | 12.66573 | 12100 ft | 315 kts | 158° |
| 2026-05-06 12:05 | 38.48547 | 12.67752 | 11690 ft | 313 kts | 158° |
| 2026-05-06 12:05 | 38.46579 | 12.68925 | 11276 ft | 311 kts | 157° |
| 2026-05-06 12:05 | 38.44646 | 12.70076 | 10864 ft | 309 kts | 157° |
| 2026-05-06 12:06 | 38.42716 | 12.71220 | 10671 ft | 300 kts | 157° |
| 2026-05-06 12:06 | 38.40856 | 12.72326 | 10545 ft | 290 kts | 157° |
| 2026-05-06 12:06 | 38.39062 | 12.73398 | 10426 ft | 280 kts | 157° |
| 2026-05-06 12:06 | 38.37329 | 12.74432 | 10285 ft | 271 kts | 157° |
| 2026-05-06 12:07 | 38.35779 | 12.75765 | 10028 ft | 271 kts | 133° |
| 2026-05-06 12:07 | 38.34937 | 12.77900 | 9687 ft | 275 kts | 102° |
| 2026-05-06 12:07 | 38.35092 | 12.80314 | 9335 ft | 279 kts | 70° |
| 2026-05-06 12:07 | 38.35967 | 12.82522 | 8943 ft | 280 kts | 65° |
| 2026-05-06 12:08 | 38.36782 | 12.84763 | 8584 ft | 278 kts | 69° |
| 2026-05-06 12:08 | 38.37519 | 12.87030 | 8231 ft | 276 kts | 70° |
| 2026-05-06 12:08 | 38.38235 | 12.89298 | 7880 ft | 274 kts | 70° |
| 2026-05-06 12:08 | 38.38952 | 12.91541 | 7507 ft | 273 kts | 70° |
| 2026-05-06 12:09 | 38.39507 | 12.93867 | 7003 ft | 273 kts | 90° |
| 2026-05-06 12:09 | 38.39068 | 12.96101 | 6815 ft | 255 kts | 126° |
| 2026-05-06 12:09 | 38.37805 | 12.97523 | 6666 ft | 237 kts | 156° |
| 2026-05-06 12:09 | 38.36344 | 12.98386 | 6549 ft | 234 kts | 157° |
| 2026-05-06 12:10 | 38.34866 | 12.99253 | 6411 ft | 234 kts | 157° |
| 2026-05-06 12:10 | 38.33377 | 13.00085 | 6286 ft | 233 kts | 164° |
| 2026-05-06 12:10 | 38.31798 | 13.00091 | 6156 ft | 230 kts | 199° |
| 2026-05-06 12:10 | 38.30530 | 12.98886 | 6034 ft | 233 kts | 234° |
| 2026-05-06 12:11 | 38.29876 | 12.96981 | 5920 ft | 236 kts | 246° |
| 2026-05-06 12:11 | 38.29252 | 12.95038 | 5793 ft | 236 kts | 244° |
| 2026-05-06 12:11 | 38.28594 | 12.93126 | 5665 ft | 236 kts | 243° |
| 2026-05-06 12:11 | 38.27928 | 12.91218 | 5557 ft | 236 kts | 243° |
| 2026-05-06 12:12 | 38.27265 | 12.89315 | 5427 ft | 235 kts | 243° |
| 2026-05-06 12:12 | 38.26607 | 12.87408 | 5307 ft | 235 kts | 243° |
| 2026-05-06 12:12 | 38.25954 | 12.85507 | 5187 ft | 235 kts | 243° |
| 2026-05-06 12:12 | 38.25111 | 12.83804 | 5076 ft | 228 kts | 218° |
| 2026-05-06 12:13 | 38.23720 | 12.82953 | 4915 ft | 221 kts | 186° |
| 2026-05-06 12:13 | 38.22223 | 12.83235 | 4615 ft | 221 kts | 154° |
| 2026-05-06 12:13 | 38.20896 | 12.84207 | 4318 ft | 217 kts | 154° |
| 2026-05-06 12:13 | 38.19555 | 12.84970 | 4062 ft | 206 kts | 159° |
| 2026-05-06 12:14 | 38.18250 | 12.85621 | 3809 ft | 197 kts | 160° |
| 2026-05-06 12:14 | 38.17024 | 12.86227 | 3595 ft | 182 kts | 160° |
| 2026-05-06 12:14 | 38.15869 | 12.86806 | 3363 ft | 175 kts | 159° |
| 2026-05-06 12:14 | 38.15133 | 12.87185 | 3233 ft | 169 kts | 159° |
| 2026-05-06 12:15 | 38.14085 | 12.87730 | 3176 ft | 161 kts | 159° |
| 2026-05-06 12:15 | 38.13054 | 12.88268 | 3108 ft | 160 kts | 158° |
| 2026-05-06 12:15 | 38.12068 | 12.88922 | 3033 ft | 159 kts | 141° |
| 2026-05-06 12:15 | 38.11529 | 12.90081 | 2953 ft | 153 kts | 110° |
| 2026-05-06 12:16 | 38.11609 | 12.91424 | 2797 ft | 158 kts | 76° |
| 2026-05-06 12:16 | 38.12036 | 12.92689 | 2632 ft | 153 kts | 73° |
| 2026-05-06 12:16 | 38.12459 | 12.93924 | 2475 ft | 152 kts | 73° |
| 2026-05-06 12:16 | 38.12881 | 12.95166 | 2319 ft | 154 kts | 75° |
| 2026-05-06 12:17 | 38.13306 | 12.96417 | 2120 ft | 154 kts | 73° |
| 2026-05-06 12:17 | 38.13729 | 12.97664 | 1917 ft | 154 kts | 75° |
| 2026-05-06 12:17 | 38.14151 | 12.98909 | 1715 ft | 153 kts | 71° |
| 2026-05-06 12:17 | 38.14570 | 13.00144 | 1481 ft | 149 kts | 71° |
| 2026-05-06 12:18 | 38.14969 | 13.01323 | 1213 ft | 142 kts | 67° |
| 2026-05-06 12:18 | 38.15346 | 13.02453 | 923 ft | 135 kts | 64° |
| 2026-05-06 12:18 | 38.15711 | 13.03531 | 668 ft | 134 kts | 64° |
| 2026-05-06 12:18 | 38.16096 | 13.04620 | 615 ft | 136 kts | 63° |
| 2026-05-06 12:19 | 38.16460 | 13.05737 | 547 ft | 140 kts | 66° |
| 2026-05-06 12:19 | 38.16839 | 13.06872 | 499 ft | 138 kts | 64° |
| 2026-05-06 12:19 | 38.17203 | 13.07984 | 330 ft | 136 kts | 64° |
| 2026-05-06 12:19 | 38.17593 | 13.09133 | 323 ft | 154 kts | 64° |
| 2026-05-06 12:20 | 38.18076 | 13.10519 | 574 ft | 189 kts | 64° |
| 2026-05-06 12:20 | 38.18625 | 13.12129 | 810 ft | 195 kts | 66° |
| 2026-05-06 12:20 | 38.19171 | 13.13694 | 1042 ft | 193 kts | 65° |
| 2026-05-06 12:20 | 38.19764 | 13.15202 | 1287 ft | 190 kts | 53° |
| 2026-05-06 12:21 | 38.20860 | 13.16137 | 1525 ft | 199 kts | 16° |
| 2026-05-06 12:21 | 38.22253 | 13.16038 | 1784 ft | 205 kts | 342° |
| 2026-05-06 12:21 | 38.23571 | 13.15352 | 2030 ft | 206 kts | 335° |
| 2026-05-06 12:21 | 38.24870 | 13.14580 | 2284 ft | 208 kts | 334° |
| 2026-05-06 12:22 | 38.26219 | 13.13777 | 2538 ft | 218 kts | 334° |
| 2026-05-06 12:22 | 38.27488 | 13.12721 | 2796 ft | 220 kts | 308° |
| 2026-05-06 12:22 | 38.28124 | 13.10997 | 2971 ft | 215 kts | 272° |
| 2026-05-06 12:22 | 38.28038 | 13.09134 | 3011 ft | 210 kts | 256° |
| 2026-05-06 12:23 | 38.27768 | 13.07309 | 3006 ft | 209 kts | 254° |
| 2026-05-06 12:23 | 38.27476 | 13.05488 | 3008 ft | 209 kts | 254° |
| 2026-05-06 12:23 | 38.27164 | 13.03705 | 3009 ft | 209 kts | 251° |
| 2026-05-06 12:23 | 38.26766 | 13.01930 | 3008 ft | 208 kts | 249° |
| 2026-05-06 12:24 | 38.26353 | 13.00167 | 3010 ft | 208 kts | 249° |
| 2026-05-06 12:24 | 38.25932 | 12.98396 | 2916 ft | 208 kts | 249° |
| 2026-05-06 12:24 | 38.25511 | 12.96632 | 2797 ft | 208 kts | 249° |
| 2026-05-06 12:24 | 38.25091 | 12.94879 | 2672 ft | 207 kts | 249° |
| 2026-05-06 12:25 | 38.24668 | 12.93129 | 2548 ft | 206 kts | 249° |
| 2026-05-06 12:25 | 38.24179 | 12.91428 | 2424 ft | 203 kts | 235° |
| 2026-05-06 12:25 | 38.23177 | 12.90325 | 2302 ft | 189 kts | 199° |
| 2026-05-06 12:25 | 38.21935 | 12.90288 | 2176 ft | 177 kts | 163° |
| 2026-05-06 12:26 | 38.20825 | 12.90891 | 2085 ft | 171 kts | 155° |
| 2026-05-06 12:26 | 38.19772 | 12.91577 | 2006 ft | 169 kts | 154° |
| 2026-05-06 12:26 | 38.18732 | 12.92269 | 2004 ft | 168 kts | 154° |
| 2026-05-06 12:26 | 38.17696 | 12.92961 | 2025 ft | 168 kts | 154° |
| 2026-05-06 12:27 | 38.16685 | 12.93636 | 2039 ft | 162 kts | 154° |
| 2026-05-06 12:27 | 38.15759 | 12.94253 | 2007 ft | 141 kts | 153° |
| 2026-05-06 12:27 | 38.15131 | 12.95164 | 2003 ft | 141 kts | 121° |
| 2026-05-06 12:27 | 38.14786 | 12.96334 | 2006 ft | 141 kts | 115° |
| 2026-05-06 12:28 | 38.14486 | 12.97521 | 2008 ft | 142 kts | 111° |
| 2026-05-06 12:28 | 38.14565 | 12.98802 | 1996 ft | 153 kts | 81° |
| 2026-05-06 12:28 | 38.14973 | 13.00062 | 1739 ft | 153 kts | 74° |
| 2026-05-06 12:28 | 38.15350 | 13.01307 | 1584 ft | 150 kts | 78° |
| 2026-05-06 12:29 | 38.15667 | 13.02561 | 1377 ft | 148 kts | 74° |
| 2026-05-06 12:29 | 38.15916 | 13.03824 | 1169 ft | 146 kts | 77° |
| 2026-05-06 12:29 | 38.16166 | 13.05076 | 879 ft | 145 kts | 66° |
| 2026-05-06 12:29 | 38.16629 | 13.06213 | 637 ft | 147 kts | 60° |
| 2026-05-06 12:30 | 38.17021 | 13.07359 | 426 ft | 136 kts | 68° |
| 2026-05-06 12:30 | 38.17372 | 13.08460 | 160 ft | 134 kts | 64° |
| 2026-05-06 12:30 | 38.17717 | 13.09486 | 66 ft | 118 kts | 66° |
| 2026-05-06 12:30 | 38.17933 | 13.10145 | 60 ft | 38 kts | 66° |
| 2026-05-06 12:31 | 38.17964 | 13.10213 | 65 ft | 4 kts | 49° |
| 2026-05-06 12:31 | 38.18018 | 13.10201 | 63 ft | 17 kts | 292° |
| 2026-05-06 12:31 | 38.18035 | 13.10048 | 63 ft | 18 kts | 277° |
| 2026-05-06 12:31 | 38.18060 | 13.09900 | 62 ft | 17 kts | 300° |
| 2026-05-06 12:32 | 38.18167 | 13.09867 | 65 ft | 18 kts | 358° |
| 2026-05-06 12:32 | 38.18240 | 13.09937 | 61 ft | 15 kts | 67° |
| 2026-05-06 12:32 | 38.18257 | 13.10074 | 64 ft | 17 kts | 101° |
| 2026-05-06 12:32 | 38.18246 | 13.10231 | 65 ft | 19 kts | 71° |
| 2026-05-06 12:33 | 38.18303 | 13.10393 | 58 ft | 21 kts | 66° |
| 2026-05-06 12:33 | 38.18404 | 13.10508 | 61 ft | 19 kts | 7° |
| 2026-05-06 12:33 | 38.18479 | 13.10475 | 58 ft | 4 kts | 338° |
| 2026-05-06 12:33 | 38.18488 | 13.10470 | 61 ft | 0 kts | 337° |
| 2026-05-06 12:34 | 38.18492 | 13.10468 | 62 ft | 1 kts | 337° |
| 2026-05-06 12:34 | 38.18498 | 13.10465 | 60 ft | 1 kts | 336° |
| 2026-05-06 12:35 | 38.18499 | 13.10464 | 60 ft | 0 kts | 336° |